MDT,Max TemperatureF,Mean TemperatureF,Min TemperatureF,Max Dew PointF,MeanDew PointF,Min DewpointF,Max Humidity, Mean Humidity, Min Humidity, Max Sea Level PressureIn, Mean Sea Level PressureIn, Min Sea Level PressureIn, Max VisibilityMiles, Mean VisibilityMiles, Min VisibilityMiles, Max Wind SpeedMPH, Mean Wind SpeedMPH, Max Gust SpeedMPH,PrecipitationIn, CloudCover, Events, WindDirDegrees
2012-10-1,75,56,37,41,36,31,85,53,20,30.33,30.13,29.88,10,10,9,10,4,22,0.00,1,,144
2012-10-2,83,64,45,38,32,27,65,39,13,29.83,29.73,29.65,10,10,10,20,5,25,0.00,0,,65
2012-10-3,56,45,34,36,34,32,92,67,41,30.51,30.22,29.68,10,9,4,33,18,43,0.08,6,Rain-Snow,313
2012-10-4,42,36,29,34,31,27,100,78,55,30.49,30.40,30.33,10,9,2,13,3,15,0.06,8,Snow,342
2012-10-5,42,36,29,34,32,27,100,83,65,30.50,30.37,30.31,10,6,0,15,4,17,0.33,8,Fog-Snow,326
2012-10-6,42,31,20,29,22,11,100,65,30,30.52,30.40,30.25,10,10,5,10,3,13,0.00,3,,200
2012-10-7,60,46,31,35,29,26,92,61,29,30.22,30.06,29.89,10,10,10,15,5,47,0.00,2,,219
2012-10-8,56,46,35,40,34,27,92,67,41,30.06,29.93,29.87,10,10,10,18,9,25,0.01,4,Rain,322
2012-10-9,55,44,33,36,31,25,100,66,32,30.20,30.12,30.04,10,10,9,18,7,24,0.01,5,Rain-Snow,307
2012-10-10,72,50,27,36,30,25,92,55,18,30.11,29.98,29.84,10,10,10,14,4,21,0.00,0,,303
2012-10-11,48,39,29,37,34,29,96,79,61,30.26,30.16,30.05,10,10,9,13,5,17,0.00,6,,53
2012-10-12,79,53,27,40,34,27,100,60,19,30.08,29.86,29.70,10,10,6,7,2,10,0.00,0,,255
2012-10-13,66,55,44,40,35,28,76,50,24,30.11,29.92,29.71,10,10,10,29,7,36,0.00,3,,304
2012-10-14,71,53,35,36,33,28,85,54,22,30.19,30.08,29.92,10,10,10,16,5,22,0.00,0,,236
2012-10-15,72,56,40,45,36,29,96,59,22,29.89,29.82,29.71,10,10,10,24,4,30,T,3,,195
2012-10-16,62,50,37,48,39,21,100,70,40,29.81,29.58,29.35,10,9,2,38,10,44,0.23,4,Rain-Thunderstorm,309
2012-10-17,50,45,39,28,20,16,64,45,26,30.11,29.91,29.71,10,10,10,41,24,53,T,5,,310
2012-10-18,55,41,27,24,18,10,78,51,24,30.25,30.15,30.09,15,11,10,31,13,38,0.00,0,,305
2012-10-19,72,49,26,35,28,19,85,51,17,30.08,29.84,29.62,20,11,10,14,2,20,0.00,1,,287
2012-10-20,70,57,43,42,35,31,82,55,27,29.79,29.58,29.49,10,10,10,24,7,32,0.00,3,,321
2012-10-21,47,43,38,43,39,34,100,85,70,29.93,29.89,29.77,10,7,2,18,5,23,0.14,8,Rain,79
2012-10-22,49,41,32,43,38,31,100,91,82,29.90,29.75,29.59,10,10,8,22,5,26,0.01,6,Rain,307
2012-10-23,48,42,35,42,38,33,100,85,70,29.90,29.76,29.59,10,10,5,24,7,28,0.08,7,Rain,334
2012-10-24,37,30,23,32,28,21,96,83,70,30.25,30.06,29.87,10,10,10,22,4,25,0.00,6,,301
2012-10-25,28,26,23,27,23,19,92,87,81,30.55,30.33,30.15,10,10,4,13,6,16,T,8,Snow,356
2012-10-26,42,29,15,22,19,14,92,63,33,30.54,30.37,30.19,10,10,10,15,3,18,0.00,2,,98
2012-10-27,46,34,21,28,22,18,88,63,37,30.21,30.14,30.05,10,10,10,8,2,12,0.00,6,,29
2012-10-28,57,42,26,36,30,25,92,67,41,30.06,29.97,29.88,10,10,10,10,2,12,0.00,4,,142
2012-10-29,66,49,31,39,35,29,89,62,34,30.03,29.97,29.91,10,10,10,15,3,17,0.00,2,,233
2012-10-30,65,49,32,42,34,30,85,57,28,30.14,30.05,29.99,10,10,10,12,3,13,0.00,0,,164
2012-10-31,72,54,35,36,32,29,76,49,22,30.09,30.01,29.92,10,10,10,12,3,15,0.00,0,,152